Time;durP1;ratioP1;P1;durP2;ratioP2;P2;SDS_P1;SDS_P2;PMS_P1;PMS_P2;Temp;Humidity;BMP_temperature;BMP_pressure;BME280_temperature;BME280_humidity;BME280_pressure;Samples;Min_cycle;Max_cycle;Signal;HPM_P1;HPM_P2
2023/04/30 00:00:37;;;;;;;8.52;2.80;;;;;;;;;;5008275;28;20034;-63
2023/04/30 00:03:04;;;;;;;5.95;2.13;;;;;;;;;;5007992;28;20431;-62
2023/04/30 00:05:31;;;;;;;7.75;1.85;;;;;;;;;;5009128;28;20431;-64
2023/04/30 00:07:57;;;;;;;3.63;1.48;;;;;;;;;;5009091;28;20096;-62
2023/04/30 00:10:24;;;;;;;4.82;1.17;;;;;;;;;;5010220;28;20208;-62
2023/04/30 00:12:51;;;;;;;3.70;1.38;;;;;;;;;;5007412;28;20030;-61
2023/04/30 00:15:17;;;;;;;7.47;2.97;;;;;;;;;;5009371;28;20218;-63
2023/04/30 00:17:44;;;;;;;18.98;9.05;;;;;;;;;;5008138;28;20037;-63
2023/04/30 00:20:11;;;;;;;10.80;4.07;;;;;;;;;;5011016;28;20038;-65
2023/04/30 00:22:38;;;;;;;11.68;5.05;;;;;;;;;;5007780;28;20045;-65
2023/04/30 00:25:05;;;;;;;10.35;5.20;;;;;;;;;;5008365;28;21127;-65
2023/04/30 00:27:32;;;;;;;11.25;8.70;;;;;;;;;;5023780;28;20178;-65
2023/04/30 00:29:58;;;;;;;6.60;2.75;;;;;;;;;;5009235;28;20037;-65
2023/04/30 00:32:25;;;;;;;7.00;2.05;;;;;;;;;;5006711;28;20115;-64
2023/04/30 00:34:52;;;;;;;4.53;1.70;;;;;;;;;;5007945;28;20870;-62
2023/04/30 00:37:18;;;;;;;8.02;1.90;;;;;;;;;;5007237;28;20037;-62
2023/04/30 00:39:45;;;;;;;10.48;2.22;;;;;;;;;;5007103;28;20047;-64
2023/04/30 00:42:12;;;;;;;6.82;1.48;;;;;;;;;;5014622;28;20045;-65
2023/04/30 00:44:38;;;;;;;4.85;1.50;;;;;;;;;;5006208;28;20046;-65
2023/04/30 00:47:05;;;;;;;7.90;1.30;;;;;;;;;;5006639;28;20552;-64
2023/04/30 00:49:32;;;;;;;4.55;1.10;;;;;;;;;;5006422;28;20667;-62
2023/04/30 00:51:58;;;;;;;4.28;1.10;;;;;;;;;;5006802;28;20053;-63
2023/04/30 00:54:25;;;;;;;8.20;1.40;;;;;;;;;;5019627;28;20042;-66
2023/04/30 00:56:52;;;;;;;3.50;1.13;;;;;;;;;;5006618;28;20172;-64
2023/04/30 00:59:19;;;;;;;5.18;1.10;;;;;;;;;;5008389;28;20034;-63
2023/04/30 01:01:46;;;;;;;3.53;1.15;;;;;;;;;;5004461;28;20391;-62
2023/04/30 01:04:12;;;;;;;11.52;1.13;;;;;;;;;;5006973;28;20062;-62
2023/04/30 01:06:39;;;;;;;6.30;1.40;;;;;;;;;;5020015;28;20163;-61
2023/04/30 01:09:06;;;;;;;5.78;0.90;;;;;;;;;;5006834;28;20054;-61
2023/04/30 01:11:33;;;;;;;13.57;1.63;;;;;;;;;;5005845;28;20152;-58
2023/04/30 01:14:07;;;;;;;9.40;1.48;;;;;;;;;;5007854;28;20049;-60
2023/04/30 01:16:36;;;;;;;5.65;1.25;;;;;;;;;;5004657;28;20126;-61
2023/04/30 01:19:08;;;;;;;7.00;1.40;;;;;;;;;;5006565;28;20029;-63
2023/04/30 01:21:36;;;;;;;12.70;1.40;;;;;;;;;;5005562;28;20787;-63
2023/04/30 01:24:15;;;;;;;6.57;1.33;;;;;;;;;;5003905;28;20037;-62
2023/04/30 01:26:57;;;;;;;7.88;1.30;;;;;;;;;;5005419;28;20053;-61
2023/04/30 01:29:24;;;;;;;7.40;1.35;;;;;;;;;;5004821;28;20040;-62
2023/04/30 01:31:51;;;;;;;4.70;1.10;;;;;;;;;;5004922;28;20103;-63
2023/04/30 01:34:17;;;;;;;4.55;1.30;;;;;;;;;;5005429;28;20049;-61
2023/04/30 01:36:47;;;;;;;4.97;1.00;;;;;;;;;;5004766;28;20134;-61
2023/04/30 01:39:28;;;;;;;5.85;1.00;;;;;;;;;;5005887;28;20080;-61
2023/04/30 01:41:55;;;;;;;5.95;1.17;;;;;;;;;;5018384;28;20336;-64
2023/04/30 01:44:24;;;;;;;7.10;0.90;;;;;;;;;;5020209;28;20556;-64
2023/04/30 01:47:10;;;;;;;9.35;1.02;;;;;;;;;;5007605;28;20566;-63
2023/04/30 01:49:51;;;;;;;4.75;1.00;;;;;;;;;;5006259;28;20069;-65
2023/04/30 01:52:20;;;;;;;8.90;1.10;;;;;;;;;;5006020;28;20061;-62
2023/04/30 01:54:58;;;;;;;3.70;0.77;;;;;;;;;;5021396;28;20055;-64
2023/04/30 01:57:28;;;;;;;3.45;0.93;;;;;;;;;;5006460;28;20785;-62
2023/04/30 01:59:55;;;;;;;5.85;1.00;;;;;;;;;;5006883;28;20044;-62
2023/04/30 02:02:22;;;;;;;7.93;1.63;;;;;;;;;;5005736;28;20157;-63
2023/04/30 02:04:48;;;;;;;8.50;1.33;;;;;;;;;;5004901;28;20042;-61
2023/04/30 02:07:31;;;;;;;4.68;0.90;;;;;;;;;;5005538;28;20108;-61
2023/04/30 02:09:58;;;;;;;4.65;1.00;;;;;;;;;;5004501;28;20045;-61
2023/04/30 02:12:26;;;;;;;4.53;0.70;;;;;;;;;;5004139;28;20538;-61
2023/04/30 02:14:53;;;;;;;5.20;0.82;;;;;;;;;;5005070;28;20113;-62
2023/04/30 02:17:20;;;;;;;4.03;0.88;;;;;;;;;;5020857;28;20041;-62
2023/04/30 02:19:46;;;;;;;9.57;1.30;;;;;;;;;;5004698;28;20038;-62
2023/04/30 02:22:13;;;;;;;4.53;1.00;;;;;;;;;;5006096;28;20108;-61
2023/04/30 02:24:39;;;;;;;3.75;1.05;;;;;;;;;;5004719;28;20045;-62
2023/04/30 02:27:06;;;;;;;5.85;1.20;;;;;;;;;;5007350;28;20761;-62
2023/04/30 02:29:33;;;;;;;6.43;1.05;;;;;;;;;;5006952;28;20400;-61
2023/04/30 02:32:00;;;;;;;5.63;1.08;;;;;;;;;;5006449;28;20459;-62
2023/04/30 02:34:26;;;;;;;3.78;1.10;;;;;;;;;;5004148;28;20061;-62
2023/04/30 02:36:53;;;;;;;2.80;1.00;;;;;;;;;;5007306;28;20048;-62
2023/04/30 02:39:19;;;;;;;2.92;0.90;;;;;;;;;;5004387;28;20219;-62
2023/04/30 02:41:46;;;;;;;2.67;0.98;;;;;;;;;;5003323;28;20099;-64
2023/04/30 02:44:13;;;;;;;3.15;0.77;;;;;;;;;;5003908;28;20493;-60
2023/04/30 02:46:40;;;;;;;4.65;0.90;;;;;;;;;;5003737;28;20121;-62
2023/04/30 02:49:06;;;;;;;5.95;1.30;;;;;;;;;;5008424;28;20128;-57
2023/04/30 02:51:33;;;;;;;3.75;1.00;;;;;;;;;;5007312;28;20321;-58
2023/04/30 02:53:59;;;;;;;5.53;0.98;;;;;;;;;;5008669;28;20048;-61
2023/04/30 02:56:27;;;;;;;3.53;0.88;;;;;;;;;;5009333;28;20319;-59
2023/04/30 02:58:54;;;;;;;4.22;1.08;;;;;;;;;;5009608;28;20069;-58
2023/04/30 03:01:20;;;;;;;2.75;0.88;;;;;;;;;;5007908;28;20041;-58
2023/04/30 03:03:47;;;;;;;5.18;1.10;;;;;;;;;;5023017;28;20065;-66
2023/04/30 03:06:14;;;;;;;7.75;1.27;;;;;;;;;;5008643;28;20045;-61
2023/04/30 03:08:41;;;;;;;5.80;1.10;;;;;;;;;;5008883;28;20104;-61
2023/04/30 03:11:07;;;;;;;2.90;0.80;;;;;;;;;;5009111;28;20064;-60
2023/04/30 03:13:34;;;;;;;3.92;0.90;;;;;;;;;;5007723;28;20038;-62
2023/04/30 03:16:03;;;;;;;3.60;0.90;;;;;;;;;;5009494;28;20211;-60
2023/04/30 03:18:30;;;;;;;2.53;0.88;;;;;;;;;;5006999;28;20045;-59
2023/04/30 03:20:57;;;;;;;3.70;0.75;;;;;;;;;;5006966;28;20042;-58
2023/04/30 03:23:24;;;;;;;3.85;0.80;;;;;;;;;;5005597;28;20118;-61
2023/04/30 03:25:50;;;;;;;4.28;0.82;;;;;;;;;;5008590;28;20072;-60
2023/04/30 03:28:17;;;;;;;7.00;1.00;;;;;;;;;;5008635;28;20037;-59
2023/04/30 03:30:44;;;;;;;5.30;1.10;;;;;;;;;;5009199;28;20103;-61
2023/04/30 03:33:10;;;;;;;7.22;1.10;;;;;;;;;;5010496;28;20056;-62
2023/04/30 03:35:37;;;;;;;4.97;0.90;;;;;;;;;;5006993;28;20118;-58
2023/04/30 03:38:04;;;;;;;4.88;1.10;;;;;;;;;;5021827;28;20037;-57
2023/04/30 03:40:30;;;;;;;2.97;1.05;;;;;;;;;;5006105;28;20053;-58
2023/04/30 03:42:57;;;;;;;6.05;1.33;;;;;;;;;;5004779;28;20045;-59
2023/04/30 03:45:24;;;;;;;7.72;1.50;;;;;;;;;;5003982;28;20037;-60
2023/04/30 03:47:51;;;;;;;7.47;2.25;;;;;;;;;;5021682;28;20042;-58
2023/04/30 03:50:18;;;;;;;8.95;2.30;;;;;;;;;;5005436;28;20053;-58
2023/04/30 03:52:45;;;;;;;5.65;1.70;;;;;;;;;;5005531;28;20053;-58
2023/04/30 03:55:12;;;;;;;5.18;1.70;;;;;;;;;;5007232;28;20581;-60
2023/04/30 03:57:39;;;;;;;7.28;1.98;;;;;;;;;;5005479;28;20042;-59
2023/04/30 04:00:06;;;;;;;4.05;1.20;;;;;;;;;;5006067;28;20068;-60
2023/04/30 04:02:33;;;;;;;5.47;1.30;;;;;;;;;;5004710;28;20045;-59
2023/04/30 04:05:00;;;;;;;4.82;1.52;;;;;;;;;;5007160;28;20037;-59
2023/04/30 04:07:27;;;;;;;5.38;1.67;;;;;;;;;;5005240;28;20034;-59
2023/04/30 04:09:53;;;;;;;4.05;1.42;;;;;;;;;;5006648;28;20376;-61
2023/04/30 04:12:20;;;;;;;5.85;1.38;;;;;;;;;;5005530;28;20077;-58
2023/04/30 04:14:47;;;;;;;4.18;1.40;;;;;;;;;;5005567;28;20046;-59
2023/04/30 04:17:14;;;;;;;5.88;1.42;;;;;;;;;;5008408;28;21069;-61
2023/04/30 04:19:41;;;;;;;4.38;1.60;;;;;;;;;;5007803;28;20147;-62
2023/04/30 04:22:08;;;;;;;5.03;1.40;;;;;;;;;;5006506;28;20098;-57
2023/04/30 04:24:35;;;;;;;8.32;1.90;;;;;;;;;;5006560;28;20034;-60
2023/04/30 04:27:03;;;;;;;4.82;1.90;;;;;;;;;;5009375;28;20053;-63
2023/04/30 04:29:30;;;;;;;5.35;2.10;;;;;;;;;;5006082;28;20038;-60
2023/04/30 04:31:56;;;;;;;5.93;1.88;;;;;;;;;;5022245;28;20049;-60
2023/04/30 04:34:23;;;;;;;10.48;1.30;;;;;;;;;;5007716;28;20956;-61
2023/04/30 04:36:51;;;;;;;6.40;1.05;;;;;;;;;;5008752;28;21698;-62
2023/04/30 04:39:17;;;;;;;8.05;1.30;;;;;;;;;;5023842;28;21827;-65
2023/04/30 04:41:44;;;;;;;3.28;1.00;;;;;;;;;;4936219;28;2115935;-59
2023/04/30 04:44:11;;;;;;;5.10;1.20;;;;;;;;;;5008810;28;20152;-58
2023/04/30 04:46:38;;;;;;;8.02;1.30;;;;;;;;;;5007343;28;20133;-63
2023/04/30 04:49:05;;;;;;;3.63;1.20;;;;;;;;;;5007964;28;20064;-60
2023/04/30 04:51:32;;;;;;;8.07;1.13;;;;;;;;;;5007315;28;20149;-61
2023/04/30 04:53:59;;;;;;;3.20;0.90;;;;;;;;;;5008949;28;20108;-60
2023/04/30 04:56:26;;;;;;;7.35;1.23;;;;;;;;;;5006730;28;20694;-60
2023/04/30 04:58:53;;;;;;;5.63;1.50;;;;;;;;;;5007051;28;20130;-59
2023/04/30 05:01:20;;;;;;;6.60;1.40;;;;;;;;;;5007363;28;20037;-60
2023/04/30 05:03:47;;;;;;;3.22;1.30;;;;;;;;;;5008122;28;20113;-60
2023/04/30 05:06:14;;;;;;;6.75;1.23;;;;;;;;;;5007016;28;20050;-59
2023/04/30 05:08:40;;;;;;;6.07;1.20;;;;;;;;;;4999568;28;20034;-59
2023/04/30 05:11:07;;;;;;;5.38;1.30;;;;;;;;;;5005968;28;20195;-60
2023/04/30 05:13:33;;;;;;;10.52;1.60;;;;;;;;;;5006884;28;20041;-60
2023/04/30 05:16:00;;;;;;;12.40;1.60;;;;;;;;;;5008007;28;20086;-61
2023/04/30 05:18:27;;;;;;;6.95;1.80;;;;;;;;;;5007524;28;20038;-61
2023/04/30 05:20:53;;;;;;;8.20;1.55;;;;;;;;;;5006513;28;20215;-59
2023/04/30 05:23:20;;;;;;;4.80;1.60;;;;;;;;;;5007223;28;20045;-63
2023/04/30 05:25:51;;;;;;;5.15;1.60;;;;;;;;;;5007678;28;20085;-61
2023/04/30 05:28:18;;;;;;;4.10;1.75;;;;;;;;;;5007578;28;20046;-60
2023/04/30 05:30:44;;;;;;;5.13;1.60;;;;;;;;;;5004925;28;20046;-59
2023/04/30 05:33:11;;;;;;;8.52;1.63;;;;;;;;;;5007416;28;21385;-59
2023/04/30 05:35:37;;;;;;;7.32;1.20;;;;;;;;;;5006798;28;20040;-60
2023/04/30 05:38:04;;;;;;;5.57;1.50;;;;;;;;;;5007855;28;20034;-60
2023/04/30 05:40:32;;;;;;;7.70;1.65;;;;;;;;;;5005717;28;20117;-58
2023/04/30 05:42:58;;;;;;;7.68;1.60;;;;;;;;;;5008221;28;20044;-60
2023/04/30 05:45:28;;;;;;;3.78;1.13;;;;;;;;;;5004101;28;20128;-60
2023/04/30 05:47:55;;;;;;;5.97;1.50;;;;;;;;;;5006324;28;20340;-61
2023/04/30 05:50:21;;;;;;;5.57;1.38;;;;;;;;;;5007152;28;20058;-62
2023/04/30 05:52:48;;;;;;;10.48;1.40;;;;;;;;;;4998291;28;20041;-60
2023/04/30 05:55:15;;;;;;;4.85;1.35;;;;;;;;;;5007991;28;20049;-61
2023/04/30 05:57:41;;;;;;;7.63;1.85;;;;;;;;;;5007444;28;20841;-61
2023/04/30 06:00:08;;;;;;;4.90;1.52;;;;;;;;;;5006653;28;20052;-59
2023/04/30 06:02:35;;;;;;;7.13;1.70;;;;;;;;;;5007043;28;20430;-60
2023/04/30 06:05:02;;;;;;;7.55;1.48;;;;;;;;;;5006775;28;20125;-60
2023/04/30 06:07:29;;;;;;;8.65;1.88;;;;;;;;;;5020200;28;20116;-62
2023/04/30 06:09:56;;;;;;;6.57;1.50;;;;;;;;;;5006190;28;20519;-58
2023/04/30 06:12:22;;;;;;;5.45;1.50;;;;;;;;;;5004504;28;20050;-59
2023/04/30 06:14:49;;;;;;;4.93;1.73;;;;;;;;;;5007079;28;20786;-59
2023/04/30 06:17:16;;;;;;;5.13;1.38;;;;;;;;;;5007099;28;20048;-60
2023/04/30 06:19:43;;;;;;;5.80;1.10;;;;;;;;;;5006642;28;20069;-59
2023/04/30 06:22:10;;;;;;;8.88;1.40;;;;;;;;;;5004695;28;20061;-59
2023/04/30 06:24:37;;;;;;;7.60;1.33;;;;;;;;;;5007326;28;20049;-60
2023/04/30 06:27:04;;;;;;;5.15;1.50;;;;;;;;;;5005888;28;20069;-60
2023/04/30 06:29:30;;;;;;;9.00;1.55;;;;;;;;;;5005574;28;20037;-62
2023/04/30 06:31:57;;;;;;;5.53;1.20;;;;;;;;;;5005079;28;20542;-61
2023/04/30 06:34:24;;;;;;;5.22;1.55;;;;;;;;;;5004278;28;20057;-59
2023/04/30 06:36:50;;;;;;;4.43;1.60;;;;;;;;;;5006475;28;20045;-60
2023/04/30 06:39:17;;;;;;;3.38;1.10;;;;;;;;;;5006248;28;20045;-62
2023/04/30 06:41:46;;;;;;;6.68;1.25;;;;;;;;;;5006323;28;20045;-61
2023/04/30 06:44:12;;;;;;;6.10;1.27;;;;;;;;;;5005763;28;20050;-58
2023/04/30 06:46:39;;;;;;;8.98;1.25;;;;;;;;;;5005788;28;20880;-59
2023/04/30 06:49:06;;;;;;;5.32;1.42;;;;;;;;;;5007217;28;20124;-60
2023/04/30 06:51:33;;;;;;;6.28;1.30;;;;;;;;;;5005409;28;20050;-58
2023/04/30 06:53:59;;;;;;;4.45;1.20;;;;;;;;;;5009056;28;20049;-61
2023/04/30 06:56:26;;;;;;;4.00;1.33;;;;;;;;;;5006470;28;20037;-59
2023/04/30 06:58:52;;;;;;;3.63;1.02;;;;;;;;;;5008585;28;20049;-57
2023/04/30 07:01:19;;;;;;;6.75;1.27;;;;;;;;;;5006510;28;20057;-59
2023/04/30 07:03:46;;;;;;;5.93;1.58;;;;;;;;;;5007646;28;20069;-58
2023/04/30 07:06:13;;;;;;;6.28;1.33;;;;;;;;;;5006917;28;20037;-60
2023/04/30 07:08:40;;;;;;;6.35;1.35;;;;;;;;;;5007017;28;20054;-59
2023/04/30 07:11:06;;;;;;;8.40;1.48;;;;;;;;;;5005231;28;20041;-61
2023/04/30 07:13:33;;;;;;;7.68;1.58;;;;;;;;;;5007177;28;20042;-59
2023/04/30 07:16:00;;;;;;;8.57;1.60;;;;;;;;;;5006318;28;20174;-57
2023/04/30 07:18:26;;;;;;;5.15;1.65;;;;;;;;;;5005674;28;20110;-61
2023/04/30 07:20:53;;;;;;;4.57;1.20;;;;;;;;;;5006679;28;20144;-59
2023/04/30 07:23:20;;;;;;;3.97;1.10;;;;;;;;;;5005527;28;20068;-64
2023/04/30 07:25:46;;;;;;;3.22;1.17;;;;;;;;;;5006469;28;20586;-58
2023/04/30 07:28:13;;;;;;;8.88;1.38;;;;;;;;;;5007362;28;20046;-59
2023/04/30 07:30:40;;;;;;;8.63;1.20;;;;;;;;;;5003516;28;20558;-59
2023/04/30 07:33:08;;;;;;;5.45;1.25;;;;;;;;;;5006799;28;20049;-59
2023/04/30 07:35:35;;;;;;;8.82;1.35;;;;;;;;;;5009727;28;20041;-59
2023/04/30 07:38:03;;;;;;;5.30;1.13;;;;;;;;;;5009291;28;20495;-59
2023/04/30 07:40:30;;;;;;;4.03;1.38;;;;;;;;;;5008220;28;20049;-59
2023/04/30 07:42:57;;;;;;;3.78;1.25;;;;;;;;;;5024437;28;20298;-62
2023/04/30 07:45:23;;;;;;;6.32;1.40;;;;;;;;;;5009203;28;20077;-61
2023/04/30 07:47:50;;;;;;;6.53;1.33;;;;;;;;;;5015184;28;20048;-55
2023/04/30 07:50:17;;;;;;;5.25;1.15;;;;;;;;;;5013924;28;20047;-63
2023/04/30 07:52:44;;;;;;;5.97;1.27;;;;;;;;;;5014137;28;20068;-57
2023/04/30 07:55:11;;;;;;;7.20;1.25;;;;;;;;;;5015086;28;20032;-59
2023/04/30 07:57:37;;;;;;;3.53;1.00;;;;;;;;;;5011266;28;20037;-61
2023/04/30 08:00:04;;;;;;;5.07;0.95;;;;;;;;;;5011095;28;20124;-59
2023/04/30 08:02:31;;;;;;;6.88;0.95;;;;;;;;;;5009887;28;20164;-57
2023/04/30 08:04:58;;;;;;;3.00;0.70;;;;;;;;;;5010204;28;20061;-59
2023/04/30 08:07:44;;;;;;;4.22;1.08;;;;;;;;;;5008666;28;20037;-60
2023/04/30 08:10:11;;;;;;;5.07;1.00;;;;;;;;;;5007936;28;20037;-63
2023/04/30 08:12:37;;;;;;;5.03;1.00;;;;;;;;;;5008430;28;20091;-61
2023/04/30 08:15:05;;;;;;;4.00;1.17;;;;;;;;;;5008265;28;20167;-57
2023/04/30 08:17:35;;;;;;;3.60;1.10;;;;;;;;;;5006527;28;20052;-58
2023/04/30 08:20:03;;;;;;;4.95;0.93;;;;;;;;;;5005780;28;20060;-60
2023/04/30 08:22:30;;;;;;;6.05;1.38;;;;;;;;;;5006148;28;20587;-61
2023/04/30 08:24:56;;;;;;;3.53;1.02;;;;;;;;;;5005954;28;20052;-58
2023/04/30 08:27:23;;;;;;;6.07;1.20;;;;;;;;;;5005244;28;20059;-61
2023/04/30 08:29:50;;;;;;;4.47;1.05;;;;;;;;;;5008146;28;20042;-61
2023/04/30 08:32:18;;;;;;;4.70;0.90;;;;;;;;;;5005126;28;20144;-59
2023/04/30 08:34:45;;;;;;;3.90;0.90;;;;;;;;;;5025379;28;20072;-59
2023/04/30 08:37:12;;;;;;;3.55;0.80;;;;;;;;;;5026270;28;20109;-64
2023/04/30 08:39:38;;;;;;;5.82;0.90;;;;;;;;;;5025022;28;20112;-59
2023/04/30 08:42:08;;;;;;;3.95;0.95;;;;;;;;;;5009494;28;20191;-59
2023/04/30 08:44:35;;;;;;;2.25;0.70;;;;;;;;;;5000038;28;20121;-58
2023/04/30 08:47:03;;;;;;;3.28;0.90;;;;;;;;;;4968836;28;20050;-59
2023/04/30 08:49:31;;;;;;;3.65;1.05;;;;;;;;;;4968312;28;20042;-59
2023/04/30 08:52:00;;;;;;;6.10;1.10;;;;;;;;;;4968123;28;20061;-59
2023/04/30 08:54:28;;;;;;;5.35;0.98;;;;;;;;;;4968091;28;20115;-59
2023/04/30 08:56:55;;;;;;;3.47;1.13;;;;;;;;;;4969411;28;20831;-59
2023/04/30 08:59:21;;;;;;;3.58;0.95;;;;;;;;;;4968276;28;20050;-59
2023/04/30 09:01:48;;;;;;;4.72;1.10;;;;;;;;;;4967597;28;20062;-59
2023/04/30 09:04:15;;;;;;;3.67;1.00;;;;;;;;;;4968096;28;20042;-61
2023/04/30 09:06:42;;;;;;;5.63;0.88;;;;;;;;;;4968220;28;20035;-61
2023/04/30 09:09:12;;;;;;;6.10;1.10;;;;;;;;;;4968877;28;20165;-61
2023/04/30 09:11:40;;;;;;;5.82;1.00;;;;;;;;;;4986777;28;20043;-58
2023/04/30 09:14:07;;;;;;;4.13;1.15;;;;;;;;;;4990096;28;20391;-60
2023/04/30 09:16:46;;;;;;;3.42;0.98;;;;;;;;;;4989064;28;20499;-59
2023/04/30 09:19:25;;;;;;;2.70;0.85;;;;;;;;;;4990420;28;20045;-61
2023/04/30 09:21:52;;;;;;;2.97;0.77;;;;;;;;;;4989003;28;20038;-59
2023/04/30 09:24:18;;;;;;;4.50;0.80;;;;;;;;;;4991002;28;20049;-60
2023/04/30 09:26:48;;;;;;;4.55;0.90;;;;;;;;;;4990858;28;20071;-60
2023/04/30 09:29:15;;;;;;;4.32;1.02;;;;;;;;;;4991039;28;20124;-63
2023/04/30 09:31:45;;;;;;;5.25;1.10;;;;;;;;;;4988436;28;20038;-59
2023/04/30 09:34:12;;;;;;;8.18;1.00;;;;;;;;;;4990531;28;20111;-59
2023/04/30 09:36:53;;;;;;;5.40;1.20;;;;;;;;;;4987447;28;20041;-59
2023/04/30 09:39:20;;;;;;;4.10;0.80;;;;;;;;;;4989405;28;20564;-62
2023/04/30 09:41:47;;;;;;;3.97;0.90;;;;;;;;;;5004591;28;20053;-57
2023/04/30 09:46:44;;;;;;;3.47;1.10;;;;;;;;;;4763445;22;20048;-60
2023/04/30 09:49:11;;;;;;;4.60;0.95;;;;;;;;;;5039463;28;20120;-60
2023/04/30 09:51:53;;;;;;;3.85;1.10;;;;;;;;;;5037963;28;20045;-60
2023/04/30 09:54:22;;;;;;;3.47;0.90;;;;;;;;;;5039341;28;20029;-65
2023/04/30 09:56:50;;;;;;;3.83;0.98;;;;;;;;;;5041008;28;21371;-59
2023/04/30 09:59:19;;;;;;;4.40;1.00;;;;;;;;;;5040632;28;21126;-57
2023/04/30 10:01:46;;;;;;;4.78;0.82;;;;;;;;;;5036020;28;20067;-59
2023/04/30 10:04:13;;;;;;;7.68;1.23;;;;;;;;;;5022866;28;20037;-59
2023/04/30 10:06:41;;;;;;;3.40;0.95;;;;;;;;;;5039903;28;20418;-59
2023/04/30 10:09:10;;;;;;;6.32;1.00;;;;;;;;;;5037929;28;20033;-61
2023/04/30 10:11:37;;;;;;;5.53;1.23;;;;;;;;;;5039664;28;20490;-61
2023/04/30 10:14:26;;;;;;;3.88;1.13;;;;;;;;;;4996817;28;20057;-62
2023/04/30 10:16:58;;;;;;;3.22;0.95;;;;;;;;;;4996665;28;20072;-60
2023/04/30 10:19:25;;;;;;;4.80;1.17;;;;;;;;;;4996356;28;20053;-61
2023/04/30 10:21:52;;;;;;;6.43;1.20;;;;;;;;;;4997470;28;20069;-64
2023/04/30 10:24:20;;;;;;;4.57;1.00;;;;;;;;;;4993756;28;20093;-61
2023/04/30 10:26:47;;;;;;;8.95;1.50;;;;;;;;;;4979999;28;20118;-62
2023/04/30 10:29:15;;;;;;;3.17;1.20;;;;;;;;;;4985192;28;20201;-62
2023/04/30 10:31:43;;;;;;;3.08;0.90;;;;;;;;;;4995689;28;20053;-62
2023/04/30 10:34:20;;;;;;;6.38;1.30;;;;;;;;;;4997095;28;20050;-61
2023/04/30 10:36:54;;;;;;;3.03;0.98;;;;;;;;;;4957546;28;21671;-60
2023/04/30 10:39:22;;;;;;;6.22;1.30;;;;;;;;;;4951316;28;20058;-63
2023/04/30 10:41:48;;;;;;;3.03;0.93;;;;;;;;;;4955799;28;20045;-60
2023/04/30 10:44:21;;;;;;;3.20;1.10;;;;;;;;;;4956754;28;20125;-59
2023/04/30 10:46:48;;;;;;;8.90;1.27;;;;;;;;;;4955500;28;20085;-63
2023/04/30 10:49:15;;;;;;;6.00;1.10;;;;;;;;;;4955816;28;20714;-60
2023/04/30 10:51:53;;;;;;;3.00;1.00;;;;;;;;;;4972119;28;20053;-61
2023/04/30 10:54:26;;;;;;;4.07;1.00;;;;;;;;;;4997829;28;20134;-63
2023/04/30 10:56:55;;;;;;;4.32;0.98;;;;;;;;;;4997044;28;20638;-59
2023/04/30 10:59:23;;;;;;;3.35;1.10;;;;;;;;;;4993814;28;20235;-61
2023/04/30 11:02:00;;;;;;;3.10;1.23;;;;;;;;;;4994471;28;20042;-60
2023/04/30 11:04:27;;;;;;;4.28;1.17;;;;;;;;;;4994120;28;20072;-60
2023/04/30 11:06:53;;;;;;;5.45;1.10;;;;;;;;;;4996977;28;20098;-62
2023/04/30 11:09:24;;;;;;;5.05;1.05;;;;;;;;;;4998362;28;20080;-60
2023/04/30 11:12:01;;;;;;;3.25;1.00;;;;;;;;;;4998853;28;20054;-61
2023/04/30 11:14:31;;;;;;;3.97;0.88;;;;;;;;;;5023210;28;20068;-61
2023/04/30 11:17:02;;;;;;;5.07;1.33;;;;;;;;;;5041949;28;20041;-61
2023/04/30 11:19:29;;;;;;;3.83;1.00;;;;;;;;;;5043649;28;20052;-59
2023/04/30 11:22:16;;;;;;;4.72;1.10;;;;;;;;;;5056125;28;20376;-60
2023/04/30 11:24:52;;;;;;;7.18;1.10;;;;;;;;;;5058277;28;20102;-60
2023/04/30 11:27:26;;;;;;;3.38;1.05;;;;;;;;;;5018223;28;20052;-59
2023/04/30 11:29:53;;;;;;;3.47;1.00;;;;;;;;;;5058333;28;20800;-62
2023/04/30 11:32:21;;;;;;;5.60;1.30;;;;;;;;;;5039634;28;20071;-66
2023/04/30 11:34:48;;;;;;;4.43;1.00;;;;;;;;;;5057508;28;20049;-60
2023/04/30 11:37:36;;;;;;;3.20;1.10;;;;;;;;;;5018332;28;20041;-60
2023/04/30 11:40:10;;;;;;;4.78;1.15;;;;;;;;;;5017969;28;20148;-59
2023/04/30 11:42:40;;;;;;;6.78;1.10;;;;;;;;;;5017586;28;20075;-61
2023/04/30 11:45:11;;;;;;;3.83;1.10;;;;;;;;;;5017885;28;20217;-62
2023/04/30 11:47:45;;;;;;;4.45;1.13;;;;;;;;;;5016962;28;20515;-60
2023/04/30 11:50:13;;;;;;;3.60;1.05;;;;;;;;;;5016805;28;20093;-60
2023/04/30 11:52:40;;;;;;;3.83;1.10;;;;;;;;;;5017875;28;20049;-60
2023/04/30 11:55:17;;;;;;;3.58;1.00;;;;;;;;;;5010692;28;20110;-59
2023/04/30 11:57:45;;;;;;;4.55;1.30;;;;;;;;;;5004425;28;20049;-60
2023/04/30 12:00:15;;;;;;;4.63;1.10;;;;;;;;;;5021194;28;20071;-60
2023/04/30 12:02:46;;;;;;;8.05;1.25;;;;;;;;;;5020457;28;20530;-60
2023/04/30 12:05:20;;;;;;;4.30;1.35;;;;;;;;;;5020851;28;20084;-64
2023/04/30 12:07:48;;;;;;;5.65;1.17;;;;;;;;;;5019583;28;20115;-61
2023/04/30 12:10:15;;;;;;;5.15;1.38;;;;;;;;;;5019839;28;20045;-61
2023/04/30 12:12:45;;;;;;;9.02;1.55;;;;;;;;;;5022362;28;20148;-61
2023/04/30 12:15:16;;;;;;;5.20;1.30;;;;;;;;;;5032834;28;20055;-60
2023/04/30 12:17:43;;;;;;;4.82;1.25;;;;;;;;;;5043032;28;20037;-62
2023/04/30 12:20:11;;;;;;;4.03;1.33;;;;;;;;;;5043155;28;20029;-60
2023/04/30 12:22:37;;;;;;;4.10;1.05;;;;;;;;;;5041786;28;20153;-61
2023/04/30 12:25:08;;;;;;;6.70;1.10;;;;;;;;;;5042834;28;20040;-63
2023/04/30 12:27:36;;;;;;;5.07;1.15;;;;;;;;;;5042197;28;20045;-62
2023/04/30 12:30:09;;;;;;;4.43;1.17;;;;;;;;;;5041892;28;20048;-60
2023/04/30 12:32:35;;;;;;;;;;;;;;;;;;5040078;28;20063;-62
2023/04/30 12:35:03;;;;;;;4.55;1.02;;;;;;;;;;5041863;28;19916;-61
2023/04/30 12:37:30;;;;;;;2.85;1.02;;;;;;;;;;5043890;28;20045;-62
2023/04/30 12:39:57;;;;;;;3.60;1.15;;;;;;;;;;5044006;28;20086;-59
2023/04/30 12:42:25;;;;;;;4.55;1.20;;;;;;;;;;5057290;28;20040;-62
2023/04/30 12:44:51;;;;;;;10.25;1.40;;;;;;;;;;5041865;28;20037;-60
2023/04/30 12:47:19;;;;;;;10.43;1.27;;;;;;;;;;5042309;28;20068;-61
2023/04/30 12:49:45;;;;;;;8.35;1.30;;;;;;;;;;5041678;28;20393;-60
2023/04/30 12:52:14;;;;;;;3.47;1.10;;;;;;;;;;5042644;28;20048;-62
2023/04/30 12:54:41;;;;;;;5.35;1.20;;;;;;;;;;5041951;28;20495;-64
2023/04/30 12:57:09;;;;;;;6.13;1.40;;;;;;;;;;5046394;28;20040;-60
2023/04/30 12:59:39;;;;;;;4.40;1.25;;;;;;;;;;5043697;28;20067;-59
2023/04/30 13:02:09;;;;;;;7.80;1.10;;;;;;;;;;5042570;28;20044;-63
2023/04/30 13:04:36;;;;;;;3.60;1.00;;;;;;;;;;5040810;28;20099;-64
2023/04/30 13:07:04;;;;;;;7.53;1.90;;;;;;;;;;5042394;28;20041;-62
2023/04/30 13:09:33;;;;;;;5.65;1.60;;;;;;;;;;5041205;28;20045;-64
2023/04/30 13:12:00;;;;;;;8.73;1.20;;;;;;;;;;5037566;28;20631;-62
2023/04/30 13:14:27;;;;;;;4.75;1.20;;;;;;;;;;5040588;28;20025;-63
2023/04/30 13:16:54;;;;;;;4.60;1.10;;;;;;;;;;5030285;28;20057;-62
2023/04/30 13:19:21;;;;;;;7.43;1.05;;;;;;;;;;5040808;28;20033;-63
2023/04/30 13:21:47;;;;;;;3.53;1.10;;;;;;;;;;5044065;28;20069;-63
2023/04/30 13:24:15;;;;;;;5.22;1.10;;;;;;;;;;5040179;28;20041;-62
2023/04/30 13:26:41;;;;;;;4.47;1.13;;;;;;;;;;5042279;28;22013;-61
2023/04/30 13:29:08;;;;;;;7.97;1.70;;;;;;;;;;5041765;28;20119;-62
2023/04/30 13:31:54;;;;;;;4.63;1.30;;;;;;;;;;5042267;28;20076;-61
2023/04/30 13:34:21;;;;;;;2.95;1.00;;;;;;;;;;5042051;28;20397;-63
2023/04/30 13:36:48;;;;;;;9.88;1.20;;;;;;;;;;5042724;28;20040;-62
2023/04/30 13:39:15;;;;;;;3.75;0.98;;;;;;;;;;5042658;28;20123;-63
2023/04/30 13:41:41;;;;;;;4.88;1.00;;;;;;;;;;5042175;28;22228;-62
2023/04/30 13:44:09;;;;;;;3.40;1.00;;;;;;;;;;5041428;28;20044;-60
2023/04/30 13:46:35;;;;;;;4.47;1.10;;;;;;;;;;5039791;28;20465;-62
2023/04/30 13:49:02;;;;;;;8.02;1.20;;;;;;;;;;5041071;28;20120;-61
2023/04/30 13:51:29;;;;;;;3.03;1.10;;;;;;;;;;5036982;28;20920;-59
2023/04/30 13:53:56;;;;;;;10.32;1.10;;;;;;;;;;5040228;28;20513;-60
2023/04/30 13:56:24;;;;;;;5.78;1.15;;;;;;;;;;5030689;28;20048;-58
2023/04/30 13:58:51;;;;;;;3.72;1.20;;;;;;;;;;5040731;28;20805;-58
2023/04/30 14:01:17;;;;;;;5.60;1.20;;;;;;;;;;5039426;28;20033;-58
2023/04/30 14:03:46;;;;;;;3.65;0.98;;;;;;;;;;5048149;28;20144;-59
2023/04/30 14:06:12;;;;;;;3.80;0.98;;;;;;;;;;5040106;28;20106;-59
2023/04/30 14:08:39;;;;;;;5.95;1.20;;;;;;;;;;5041700;28;20040;-59
2023/04/30 14:11:06;;;;;;;4.15;1.17;;;;;;;;;;5041222;28;20059;-61
2023/04/30 14:13:33;;;;;;;7.97;1.35;;;;;;;;;;5039413;28;20067;-58
2023/04/30 14:15:59;;;;;;;3.20;1.20;;;;;;;;;;5041572;28;20033;-60
2023/04/30 14:18:26;;;;;;;5.72;1.15;;;;;;;;;;5042047;28;20033;-62
2023/04/30 14:20:52;;;;;;;6.70;1.13;;;;;;;;;;5043196;28;20391;-60
2023/04/30 14:23:19;;;;;;;4.57;1.20;;;;;;;;;;5041803;28;20044;-60
2023/04/30 14:25:46;;;;;;;5.47;1.20;;;;;;;;;;5037984;28;20041;-60
2023/04/30 14:28:13;;;;;;;5.05;1.20;;;;;;;;;;5042246;28;20033;-60
2023/04/30 14:30:40;;;;;;;3.80;1.17;;;;;;;;;;5041346;28;20630;-60
2023/04/30 14:33:09;;;;;;;4.45;1.20;;;;;;;;;;5043810;28;21015;-62
2023/04/30 14:35:36;;;;;;;6.70;1.40;;;;;;;;;;5049955;28;20041;-66
2023/04/30 14:38:03;;;;;;;7.07;1.60;;;;;;;;;;5051585;28;20128;-62
2023/04/30 14:40:30;;;;;;;5.32;1.17;;;;;;;;;;5051631;28;20029;-61
2023/04/30 14:43:17;;;;;;;3.45;1.10;;;;;;;;;;5071907;28;20059;-63
2023/04/30 14:45:45;;;;;;;5.82;1.27;;;;;;;;;;5067058;28;21271;-60
2023/04/30 14:48:14;;;;;;;3.78;1.05;;;;;;;;;;5064977;28;20041;-59
2023/04/30 14:50:41;;;;;;;7.20;1.20;;;;;;;;;;5060794;28;20044;-64